Time,TemperatureF,DewpointF,PressureIn,WindDirection,WindDirectionDegrees,WindSpeedMPH,WindSpeedGustMPH,Humidity,HourlyPrecipIn,Conditions,Clouds,dailyrainin,SoftwareType,DateUTC
2013-06-03 00:10:00,68.0,66.5,29.71,NNE,22,0.0,-999.0,95,-99.99,,,0.01,Acu-Link.com,2013-06-03 04:10:00,
2013-06-03 00:25:00,68.0,66.5,29.70,ESE,112,0.0,-999.0,95,-99.99,,,0.01,Acu-Link.com,2013-06-03 04:25:00,
2013-06-03 00:40:00,68.0,66.8,29.70,SSE,157,0.0,-999.0,96,-99.99,,,0.01,Acu-Link.com,2013-06-03 04:40:00,
2013-06-03 00:55:00,68.0,66.8,29.70,South,180,0.0,-999.0,96,-99.99,,,0.01,Acu-Link.com,2013-06-03 04:55:00,
2013-06-03 01:10:00,68.0,66.8,29.71,South,180,1.6,-999.0,96,-99.99,,,0.01,Acu-Link.com,2013-06-03 05:10:00,
2013-06-03 01:26:00,69.8,68.6,29.70,East,90,1.6,-999.0,96,-99.99,,,0.01,Acu-Link.com,2013-06-03 05:26:00,
2013-06-03 01:41:00,69.8,68.6,29.70,South,180,1.1,-999.0,96,-99.99,,,0.01,Acu-Link.com,2013-06-03 05:41:00,
2013-06-03 01:56:00,69.8,68.6,29.70,SSW,202,2.0,-999.0,96,-99.99,,,0.01,Acu-Link.com,2013-06-03 05:56:00,
2013-06-03 02:12:00,69.8,68.6,29.71,South,180,1.1,-999.0,96,-99.99,,,0.01,Acu-Link.com,2013-06-03 06:12:00,
2013-06-03 02:27:00,69.8,68.6,29.71,SSE,157,2.7,-999.0,96,-99.99,,,0.01,Acu-Link.com,2013-06-03 06:27:00,
2013-06-03 02:42:00,69.8,68.6,29.71,NW,315,1.6,-999.0,96,-99.99,,,0.01,Acu-Link.com,2013-06-03 06:42:00,
2013-06-03 02:57:00,69.8,68.6,29.70,ESE,112,3.1,-999.0,96,-99.99,,,0.06,Acu-Link.com,2013-06-03 06:57:00,
2013-06-03 03:13:00,69.8,68.3,29.70,SSE,157,2.0,-999.0,95,-99.99,,,0.12,Acu-Link.com,2013-06-03 07:13:00,
2013-06-03 03:28:00,69.8,68.3,29.69,ESE,112,1.6,-999.0,95,-99.99,,,0.18,Acu-Link.com,2013-06-03 07:28:00,
2013-06-03 03:43:00,69.8,68.3,29.69,SSE,157,1.1,-999.0,95,-99.99,,,0.20,Acu-Link.com,2013-06-03 07:43:00,
2013-06-03 03:58:00,68.0,66.5,29.68,South,180,2.0,-999.0,95,-99.99,,,0.20,Acu-Link.com,2013-06-03 07:58:00,
2013-06-03 04:15:00,68.0,66.5,29.68,NNW,337,0.0,-999.0,95,-99.99,,,0.20,Acu-Link.com,2013-06-03 08:15:00,
2013-06-03 04:31:00,68.0,66.5,29.68,ESE,112,1.6,-999.0,95,-99.99,,,0.20,Acu-Link.com,2013-06-03 08:31:00,
2013-06-03 04:46:00,68.0,66.8,29.68,NNW,337,0.0,-999.0,96,-99.99,,,0.20,Acu-Link.com,2013-06-03 08:46:00,
2013-06-03 05:02:00,68.0,66.8,29.68,SE,135,1.1,-999.0,96,-99.99,,,0.20,Acu-Link.com,2013-06-03 09:02:00,
2013-06-03 05:17:00,68.0,66.8,29.68,West,270,0.0,-999.0,96,-99.99,,,0.20,Acu-Link.com,2013-06-03 09:17:00,
2013-06-03 05:32:00,68.0,66.8,29.68,WNW,292,0.0,-999.0,96,-99.99,,,0.20,Acu-Link.com,2013-06-03 09:32:00,
2013-06-03 05:47:00,68.0,66.8,29.68,West,270,0.0,-999.0,96,-99.99,,,0.20,Acu-Link.com,2013-06-03 09:47:00,
2013-06-03 06:02:00,68.0,66.8,29.67,North,0,0.0,-999.0,96,-99.99,,,0.20,Acu-Link.com,2013-06-03 10:02:00,
2013-06-03 06:17:00,68.0,66.8,29.68,NNE,22,0.0,-999.0,96,-99.99,,,0.20,Acu-Link.com,2013-06-03 10:17:00,
2013-06-03 06:32:00,68.0,66.8,29.68,NNE,22,0.0,-999.0,96,-99.99,,,0.20,Acu-Link.com,2013-06-03 10:32:00,
2013-06-03 06:48:00,68.0,66.8,29.68,SSE,157,0.0,-999.0,96,-99.99,,,0.20,Acu-Link.com,2013-06-03 10:48:00,
2013-06-03 07:03:00,68.0,66.8,29.70,NNE,22,0.0,-999.0,96,-99.99,,,0.20,Acu-Link.com,2013-06-03 11:03:00,
2013-06-03 07:18:00,68.0,66.8,29.69,West,270,0.0,-999.0,96,-99.99,,,0.20,Acu-Link.com,2013-06-03 11:18:00,
2013-06-03 07:33:00,69.8,68.6,29.69,WSW,247,1.6,-999.0,96,-99.99,,,0.20,Acu-Link.com,2013-06-03 11:33:00,
2013-06-03 07:48:00,69.8,68.3,29.69,West,270,1.1,-999.0,95,-99.99,,,0.20,Acu-Link.com,2013-06-03 11:48:00,
2013-06-03 08:19:00,71.6,69.5,29.69,NW,315,0.0,-999.0,93,-99.99,,,0.20,Acu-Link.com,2013-06-03 12:19:00,
2013-06-03 08:34:00,71.6,69.1,29.70,SSE,157,1.6,-999.0,92,-99.99,,,0.20,Acu-Link.com,2013-06-03 12:34:00,
2013-06-03 08:49:00,73.4,70.3,29.70,WNW,292,1.6,-999.0,90,-99.99,,,0.20,Acu-Link.com,2013-06-03 12:49:00,
2013-06-03 09:04:00,73.4,69.6,29.71,West,270,1.6,-999.0,88,-99.99,,,0.20,Acu-Link.com,2013-06-03 13:04:00,
2013-06-03 09:19:00,75.2,70.4,29.70,NW,315,1.1,-999.0,85,-99.99,,,0.20,Acu-Link.com,2013-06-03 13:19:00,
2013-06-03 09:34:00,77.0,71.4,29.71,SSE,157,1.6,-999.0,83,-99.99,,,0.20,Acu-Link.com,2013-06-03 13:34:00,
2013-06-03 09:49:00,77.0,71.4,29.70,NNW,337,0.0,-999.0,83,-99.99,,,0.20,Acu-Link.com,2013-06-03 13:49:00,
2013-06-03 10:04:00,77.0,71.1,29.70,West,270,0.0,-999.0,82,-99.99,,,0.20,Acu-Link.com,2013-06-03 14:04:00,
2013-06-03 10:20:00,77.0,70.0,29.70,South,180,0.0,-999.0,79,-99.99,,,0.20,Acu-Link.com,2013-06-03 14:20:00,
2013-06-03 10:35:00,77.0,70.0,29.71,WSW,247,0.0,-999.0,79,-99.99,,,0.20,Acu-Link.com,2013-06-03 14:35:00,
2013-06-03 10:50:00,75.2,69.3,29.71,South,180,1.1,-999.0,82,-99.99,,,0.20,Acu-Link.com,2013-06-03 14:50:00,
2013-06-03 11:05:00,77.0,69.6,29.71,SSE,157,3.1,-999.0,78,-99.99,,,0.20,Acu-Link.com,2013-06-03 15:05:00,
2013-06-03 11:36:00,77.0,70.3,29.71,West,270,0.0,-999.0,80,-99.99,,,0.20,Acu-Link.com,2013-06-03 15:36:00,
2013-06-03 11:51:00,77.0,70.3,29.71,South,180,3.1,-999.0,80,-99.99,,,0.20,Acu-Link.com,2013-06-03 15:51:00,
2013-06-03 12:07:00,77.0,69.6,29.71,SSW,202,3.6,-999.0,78,-99.99,,,0.20,Acu-Link.com,2013-06-03 16:07:00,
2013-06-03 12:22:00,78.8,69.8,29.70,SSE,157,3.1,-999.0,74,-99.99,,,0.20,Acu-Link.com,2013-06-03 16:22:00,
2013-06-03 12:37:00,78.8,69.8,29.70,South,180,3.1,-999.0,74,-99.99,,,0.20,Acu-Link.com,2013-06-03 16:37:00,
2013-06-03 12:52:00,80.6,70.3,29.70,ESE,112,1.6,-999.0,71,-99.99,,,0.20,Acu-Link.com,2013-06-03 16:52:00,
2013-06-03 13:07:00,82.4,69.9,29.70,SSE,157,3.1,-999.0,66,-99.99,,,0.20,Acu-Link.com,2013-06-03 17:07:00,
2013-06-03 13:22:00,82.4,70.3,29.69,South,180,4.0,-999.0,67,-99.99,,,0.20,Acu-Link.com,2013-06-03 17:22:00,
2013-06-03 13:38:00,86.0,71.0,29.68,SSE,157,5.6,-999.0,61,-99.99,,,0.20,Acu-Link.com,2013-06-03 17:38:00,
2013-06-03 13:53:00,84.2,70.2,29.68,South,180,4.0,-999.0,63,-99.99,,,0.20,Acu-Link.com,2013-06-03 17:53:00,
2013-06-03 14:08:00,82.4,69.0,29.68,South,180,4.7,-999.0,64,-99.99,,,0.20,Acu-Link.com,2013-06-03 18:08:00,
2013-06-03 14:23:00,82.4,69.0,29.68,South,180,3.1,-999.0,64,-99.99,,,0.20,Acu-Link.com,2013-06-03 18:23:00,
2013-06-03 14:38:00,86.0,69.5,29.68,SSE,157,1.6,-999.0,58,-99.99,,,0.20,Acu-Link.com,2013-06-03 18:38:00,
2013-06-03 14:54:00,84.2,67.8,29.67,South,180,2.7,-999.0,58,-99.99,,,0.20,Acu-Link.com,2013-06-03 18:54:00,
2013-06-03 15:09:00,87.8,69.6,29.66,ESE,112,2.0,-999.0,55,-99.99,,,0.20,Acu-Link.com,2013-06-03 19:09:00,
2013-06-03 15:24:00,86.0,68.4,29.65,South,180,4.7,-999.0,56,-99.99,,,0.20,Acu-Link.com,2013-06-03 19:24:00,
2013-06-03 15:39:00,87.8,68.5,29.65,East,90,1.6,-999.0,53,-99.99,,,0.20,Acu-Link.com,2013-06-03 19:39:00,
2013-06-03 15:55:00,86.0,69.0,29.65,South,180,2.0,-999.0,57,-99.99,,,0.20,Acu-Link.com,2013-06-03 19:55:00,
2013-06-03 16:10:00,87.8,68.5,29.65,WNW,292,2.0,-999.0,53,-99.99,,,0.20,Acu-Link.com,2013-06-03 20:10:00,
2013-06-03 16:25:00,89.6,67.9,29.63,ESE,112,1.6,-999.0,49,-99.99,,,0.20,Acu-Link.com,2013-06-03 20:25:00,
2013-06-03 16:40:00,87.8,69.6,29.63,SSE,157,2.7,-999.0,55,-99.99,,,0.20,Acu-Link.com,2013-06-03 20:40:00,
2013-06-03 16:55:00,87.8,69.6,29.64,West,270,1.1,-999.0,55,-99.99,,,0.20,Acu-Link.com,2013-06-03 20:55:00,
2013-06-03 17:11:00,86.0,69.5,29.63,NW,315,1.6,-999.0,58,-99.99,,,0.20,Acu-Link.com,2013-06-03 21:11:00,
2013-06-03 17:57:00,80.6,69.5,29.63,NNE,22,1.6,-999.0,69,-99.99,,,0.20,Acu-Link.com,2013-06-03 21:57:00,
2013-06-03 18:12:00,78.8,67.3,29.63,South,180,1.6,-999.0,68,-99.99,,,0.20,Acu-Link.com,2013-06-03 22:12:00,
2013-06-03 18:27:00,80.6,69.0,29.64,SSW,202,2.0,-999.0,68,-99.99,,,0.20,Acu-Link.com,2013-06-03 22:27:00,
2013-06-03 18:42:00,78.8,69.0,29.64,SSE,157,4.0,-999.0,72,-99.99,,,0.20,Acu-Link.com,2013-06-03 22:42:00,
2013-06-03 18:57:00,78.8,68.6,29.65,SSW,202,3.6,-999.0,71,-99.99,,,0.20,Acu-Link.com,2013-06-03 22:57:00,
2013-06-03 19:13:00,78.8,67.7,29.66,SSW,202,2.0,-999.0,69,-99.99,,,0.20,Acu-Link.com,2013-06-03 23:13:00,
2013-06-03 19:28:00,78.8,67.3,29.65,SSE,157,0.0,-999.0,68,-99.99,,,0.20,Acu-Link.com,2013-06-03 23:28:00,
2013-06-03 19:43:00,78.8,67.7,29.66,North,0,1.6,-999.0,69,-99.99,,,0.20,Acu-Link.com,2013-06-03 23:43:00,
2013-06-03 19:58:00,77.0,66.4,29.66,North,0,0.0,-999.0,70,-99.99,,,0.20,Acu-Link.com,2013-06-03 23:58:00,
2013-06-03 20:13:00,75.2,66.3,29.67,North,0,2.0,-999.0,74,-99.99,,,0.20,Acu-Link.com,2013-06-04 00:13:00,
2013-06-03 20:28:00,73.4,66.1,29.67,NNE,22,2.0,-999.0,78,-99.99,,,0.20,Acu-Link.com,2013-06-04 00:28:00,
2013-06-03 20:44:00,73.4,66.5,29.69,NNW,337,0.0,-999.0,79,-99.99,,,0.20,Acu-Link.com,2013-06-04 00:44:00,
2013-06-03 20:59:00,73.4,65.7,29.70,SSE,157,2.7,-999.0,77,-99.99,,,0.20,Acu-Link.com,2013-06-04 00:59:00,
2013-06-03 21:14:00,73.4,65.7,29.71,NNE,22,1.1,-999.0,77,-99.99,,,0.20,Acu-Link.com,2013-06-04 01:14:00,
2013-06-03 21:29:00,71.6,64.4,29.71,WNW,292,1.6,-999.0,78,-99.99,,,0.20,Acu-Link.com,2013-06-04 01:29:00,
2013-06-03 21:45:00,71.6,65.1,29.72,ESE,112,0.0,-999.0,80,-99.99,,,0.20,Acu-Link.com,2013-06-04 01:45:00,
2013-06-03 22:00:00,71.6,64.7,29.72,NNW,337,0.0,-999.0,79,-99.99,,,0.20,Acu-Link.com,2013-06-04 02:00:00,
2013-06-03 22:15:00,71.6,65.1,29.73,East,90,0.0,-999.0,80,-99.99,,,0.20,Acu-Link.com,2013-06-04 02:15:00,
2013-06-03 22:30:00,71.6,65.8,29.73,WNW,292,1.6,-999.0,82,-99.99,,,0.21,Acu-Link.com,2013-06-04 02:30:00,
2013-06-03 22:45:00,69.8,65.7,29.74,ESE,112,2.0,-999.0,87,-99.99,,,0.31,Acu-Link.com,2013-06-04 02:45:00,
2013-06-03 23:01:00,69.8,66.1,29.75,North,0,1.6,-999.0,88,-99.99,,,0.32,Acu-Link.com,2013-06-04 03:01:00,
2013-06-03 23:16:00,68.0,64.6,29.75,SE,135,1.1,-999.0,89,-99.99,,,0.41,Acu-Link.com,2013-06-04 03:16:00,
2013-06-03 23:31:00,68.0,65.3,29.75,NE,45,0.0,-999.0,91,-99.99,,,0.51,Acu-Link.com,2013-06-04 03:31:00,
2013-06-03 23:47:00,68.0,65.6,29.76,SSW,202,0.0,-999.0,92,-99.99,,,0.51,Acu-Link.com,2013-06-04 03:47:00,